Time;durP1;ratioP1;P1;durP2;ratioP2;P2;SDS_P1;SDS_P2;PMS_P1;PMS_P2;Temp;Humidity;BMP_temperature;BMP_pressure;BME280_temperature;BME280_humidity;BME280_pressure;Samples;Min_cycle;Max_cycle;Signal;HPM_P1;HPM_P2
2022/02/06 00:01:32;;;;;;;;;;;;;;;11.80;77.63;101089.16;5036361;28;19917;-83
2022/02/06 00:03:58;;;;;;;;;;;;;;;11.67;76.79;101073.50;5036576;28;19928;-82
2022/02/06 00:06:23;;;;;;;;;;;;;;;11.88;74.71;101073.38;5036752;28;19921;-83
2022/02/06 00:08:49;;;;;;;;;;;;;;;11.48;77.23;101067.22;5037880;28;19971;-83
2022/02/06 00:11:14;;;;;;;;;;;;;;;12.34;75.54;101059.38;5036717;28;19917;-83
2022/02/06 00:13:39;;;;;;;;;;;;;;;12.60;75.27;101052.59;5038280;28;20374;-83
2022/02/06 00:16:04;;;;;;;;;;;;;;;12.10;74.76;101081.38;5036777;28;20290;-83
2022/02/06 00:18:30;;;;;;;;;;;;;;;11.96;75.98;101049.53;5036521;28;19917;-82
2022/02/06 00:20:59;;;;;;;;;;;;;;;12.04;74.98;101035.56;5036690;28;19917;-84
2022/02/06 00:23:27;;;;;;;;;;;;;;;11.73;76.13;101063.28;5038493;28;19917;-82
2022/02/06 00:36:05;;;;;;;;;;;;;;;12.79;74.49;101024.44;5036954;28;19971;-83
2022/02/06 00:41:22;;;;;;;;;;;;;;;11.34;78.54;101011.84;5037150;28;20429;-82
2022/02/06 00:43:47;;;;;;;;;;;;;;;12.00;75.93;100999.63;5035615;28;19923;-82
2022/02/06 00:46:15;;;;;;;;;;;;;;;12.38;75.22;101007.59;5037029;28;20011;-82
2022/02/06 00:48:43;;;;;;;;;;;;;;;12.46;75.36;101003.59;5035832;28;19925;-82
2022/02/06 00:51:17;;;;;;;;;;;;;;;11.94;74.60;100994.50;5035609;28;19924;-82
2022/02/06 00:53:42;;;;;;;;;;;;;;;11.86;75.79;100996.69;5035425;28;19999;-83
2022/02/06 00:56:08;;;;;;;;;;;;;;;12.61;75.65;100981.06;5036371;28;20379;-81
2022/02/06 00:58:33;;;;;;;;;;;;;;;12.35;74.54;100972.50;5035329;28;20359;-82
2022/02/06 01:01:00;;;;;;;;;;;;;;;12.77;73.46;100982.00;5037638;28;19944;-82
2022/02/06 01:03:25;;;;;;;;;;;;;;;12.17;75.64;100959.91;5039054;28;20333;-82
2022/02/06 01:05:50;;;;;;;;;;;;;;;12.45;74.97;100982.84;5039174;28;20015;-82
2022/02/06 01:08:15;;;;;;;;;;;;;;;12.43;73.69;100974.78;5039053;28;19921;-82
2022/02/06 01:10:41;;;;;;;;;;;;;;;13.41;70.46;100998.38;5040530;28;19936;-82
2022/02/06 01:13:27;;;;;;;;;;;;;;;13.61;70.14;100961.88;5038979;28;19921;-82
2022/02/06 01:15:59;;;;;;;;;;;;;;;12.52;73.65;100955.28;5038910;28;20279;-82
2022/02/06 01:18:31;;;;;;;;;;;;;;;12.73;71.66;100955.09;5040248;28;20366;-82
2022/02/06 01:21:02;;;;;;;;;;;;;;;11.87;74.19;100945.09;5038909;28;20020;-82
2022/02/06 01:23:42;;;;;;;;;;;;;;;14.32;65.48;100948.63;5039689;28;19923;-82
2022/02/06 01:26:17;;;;;;;;;;;;;;;13.25;67.81;100956.72;5038285;28;19996;-82
2022/02/06 01:28:49;;;;;;;;;;;;;;;12.73;72.87;100961.38;5038564;28;19917;-82
2022/02/06 01:33:46;;;;;;;;;;;;;;;12.10;74.91;100924.06;5039320;28;19932;-81
2022/02/06 01:36:19;;;;;;;;;;;;;;;12.84;72.69;100914.63;5038292;28;19932;-82
2022/02/06 01:41:20;;;;;;;;;;;;;;;13.07;71.85;100918.78;5039595;28;19917;-82
2022/02/06 01:44:09;;;;;;;;;;;;;;;12.51;72.55;100929.09;5038376;28;19918;-81
2022/02/06 01:57:22;;;;;;;;;;;;;;;12.44;74.46;100944.00;5039019;28;19925;-81
2022/02/06 02:05:58;;;;;;;;;;;;;;;12.46;75.38;100906.78;5038976;28;20046;-81
2022/02/06 02:09:08;;;;;;;;;;;;;;;12.57;74.96;100900.75;5037206;28;19914;-81
2022/02/06 02:17:24;;;;;;;;;;;;;;;12.64;73.53;100899.47;5038668;28;19947;-82
2022/02/06 02:26:11;;;;;;;;;;;;;;;12.95;72.26;100878.72;5038909;28;19921;-81
2022/02/06 02:33:41;;;;;;;;;;;;;;;12.77;73.83;100869.78;5038733;28;19940;-81
2022/02/06 02:46:41;;;;;;;;;;;;;;;12.93;72.68;100838.09;5038271;28;20406;-82
2022/02/06 02:49:10;;;;;;;;;;;;;;;12.80;73.66;100833.44;5037043;28;19917;-82
2022/02/06 02:51:41;;;;;;;;;;;;;;;13.18;73.02;100814.03;5036694;28;19913;-82
2022/02/06 02:54:11;;;;;;;;;;;;;;;12.85;73.28;100829.53;5037102;28;19921;-82
2022/02/06 02:59:17;;;;;;;;;;;;;;;12.88;73.21;100829.34;5038070;28;20031;-81
2022/02/06 03:01:56;;;;;;;;;;;;;;;12.48;74.09;100820.75;5036793;28;19924;-82
2022/02/06 03:04:22;;;;;;;;;;;;;;;12.94;72.73;100815.41;5037016;28;19917;-81
2022/02/06 03:06:47;;;;;;;;;;;;;;;12.94;72.91;100800.97;5037842;28;19925;-80
2022/02/06 03:09:13;;;;;;;;;;;;;;;12.61;73.59;100801.94;5037780;28;19917;-81
2022/02/06 03:11:38;;;;;;;;;;;;;;;13.35;71.04;100797.66;5036316;28;20004;-82
2022/02/06 03:14:13;;;;;;;;;;;;;;;13.23;73.01;100784.78;5036293;28;19947;-81
2022/02/06 03:16:47;;;;;;;;;;;;;;;12.47;73.19;100782.84;5036906;28;19921;-82
2022/02/06 03:19:16;;;;;;;;;;;;;;;13.27;72.05;100792.66;5036452;28;19921;-81
2022/02/06 03:21:43;;;;;;;;;;;;;;;12.38;73.25;100797.81;5036412;28;20275;-82
2022/02/06 03:24:21;;;;;;;;;;;;;;;12.81;72.11;100775.50;5036735;28;19928;-81
2022/02/06 03:26:47;;;;;;;;;;;;;;;13.33;70.81;100779.66;5037741;28;20330;-81
2022/02/06 03:29:13;;;;;;;;;;;;;;;13.18;70.22;100773.31;5037508;28;19964;-81
2022/02/06 03:31:38;;;;;;;;;;;;;;;12.66;71.64;100775.41;5036185;28;19917;-81
2022/02/06 03:34:04;;;;;;;;;;;;;;;12.23;73.99;100786.84;5035461;28;19922;-81
2022/02/06 03:36:29;;;;;;;;;;;;;;;11.80;74.76;100769.31;5037176;28;20026;-81
2022/02/06 03:38:54;;;;;;;;;;;;;;;12.92;72.86;100775.72;5035413;28;19917;-80
2022/02/06 03:41:21;;;;;;;;;;;;;;;12.70;73.13;100767.97;5035896;28;19917;-81
2022/02/06 03:43:53;;;;;;;;;;;;;;;12.36;74.69;100778.03;5035485;28;19917;-81
2022/02/06 03:46:45;;;;;;;;;;;;;;;12.32;73.45;100752.91;5036101;28;19924;-81
2022/02/06 03:49:14;;;;;;;;;;;;;;;12.21;73.94;100747.22;5036998;28;19917;-81
2022/02/06 03:51:40;;;;;;;;;;;;;;;12.64;73.09;100744.75;5035867;28;20416;-81
2022/02/06 03:54:07;;;;;;;;;;;;;;;12.95;71.80;100734.81;5035545;28;19921;-81
2022/02/06 03:56:33;;;;;;;;;;;;;;;12.72;72.70;100752.47;5035565;28;19917;-81
2022/02/06 03:58:59;;;;;;;;;;;;;;;13.05;71.17;100741.44;5035188;28;19917;-81
2022/02/06 04:01:24;;;;;;;;;;;;;;;13.19;69.59;100737.91;5035368;28;19924;-81
2022/02/06 04:03:50;;;;;;;;;;;;;;;13.09;70.40;100734.88;5035706;28;19921;-81
2022/02/06 04:06:15;;;;;;;;;;;;;;;13.44;70.13;100722.88;5035853;28;19953;-82
2022/02/06 04:08:42;;;;;;;;;;;;;;;13.44;70.41;100731.03;5035887;28;19967;-81
2022/02/06 04:11:12;;;;;;;;;;;;;;;12.54;71.72;100767.97;5036017;28;19939;-81
2022/02/06 04:13:52;;;;;;;;;;;;;;;13.66;68.87;100719.66;5036050;28;19924;-82
2022/02/06 04:16:25;;;;;;;;;;;;;;;12.79;71.60;100733.97;5035668;28;19971;-82
2022/02/06 04:18:54;;;;;;;;;;;;;;;12.87;71.40;100723.53;5035609;28;19980;-81
2022/02/06 04:21:19;;;;;;;;;;;;;;;13.12;69.98;100718.38;5036810;28;20016;-81
2022/02/06 04:23:44;;;;;;;;;;;;;;;13.14;70.32;100663.97;5036886;28;19956;-82
2022/02/06 04:26:09;;;;;;;;;;;;;;;12.71;70.71;100681.03;5035664;28;19924;-82
2022/02/06 04:28:35;;;;;;;;;;;;;;;12.90;70.50;100702.50;5035598;28;19983;-82
2022/02/06 04:31:00;;;;;;;;;;;;;;;12.86;71.32;100703.69;5036462;28;19940;-81
2022/02/06 04:33:25;;;;;;;;;;;;;;;13.06;70.01;100679.88;5035582;28;19921;-82
2022/02/06 04:35:54;;;;;;;;;;;;;;;12.34;72.35;100664.16;5038267;28;19922;-81
2022/02/06 05:23:20;;;;;;;;;;;;;;;13.88;67.47;100574.22;5040268;28;19923;-81
2022/02/06 05:28:30;;;;;;;;;;;;;;;13.37;69.47;100583.78;5040255;28;20418;-82
2022/02/06 05:31:27;;;;;;;;;;;;;;;12.89;69.65;100578.59;5039968;28;20371;-81
2022/02/06 05:33:46;;;;;;;;;;;;;;;12.54;70.81;100587.03;5039560;28;19975;-81
2022/02/06 05:36:11;;;;;;;;;;;;;;;13.44;68.71;100566.13;5038372;28;19979;-81
2022/02/06 05:38:37;;;;;;;;;;;;;;;13.56;68.24;100566.31;5038620;28;19921;-82
2022/02/06 05:41:04;;;;;;;;;;;;;;;13.06;70.33;100568.53;5039876;28;19964;-81
2022/02/06 05:43:29;;;;;;;;;;;;;;;13.63;67.77;100579.41;5038409;28;19917;-81
2022/02/06 05:45:54;;;;;;;;;;;;;;;13.29;68.79;100572.50;5039006;28;19928;-81
2022/02/06 05:48:19;;;;;;;;;;;;;;;13.34;69.42;100578.53;5037759;28;19932;-81
2022/02/06 05:50:45;;;;;;;;;;;;;;;13.20;70.06;100570.38;5038103;28;20302;-82
2022/02/06 05:53:14;;;;;;;;;;;;;;;12.91;71.68;100562.22;5038148;28;19924;-81
2022/02/06 05:55:42;;;;;;;;;;;;;;;12.68;71.56;100550.03;5038095;28;20015;-81
2022/02/06 05:58:07;;;;;;;;;;;;;;;13.16;70.54;100549.81;5039248;28;20394;-81
2022/02/06 06:00:32;;;;;;;;;;;;;;;12.58;71.62;100566.03;5038168;28;19924;-82
2022/02/06 06:02:57;;;;;;;;;;;;;;;13.42;69.79;100546.34;5038131;28;19921;-81
2022/02/06 06:05:23;;;;;;;;;;;;;;;13.78;69.15;100538.59;5038139;28;20445;-83
2022/02/06 06:07:48;;;;;;;;;;;;;;;12.75;70.62;100537.84;5039138;28;19960;-82
2022/02/06 06:10:13;;;;;;;;;;;;;;;13.10;70.79;100537.47;5037840;28;19917;-79
2022/02/06 06:12:39;;;;;;;;;;;;;;;12.56;71.42;100548.94;5037693;28;19933;-82
2022/02/06 06:15:05;;;;;;;;;;;;;;;12.74;70.81;100538.78;5037764;28;19935;-83
2022/02/06 06:17:31;;;;;;;;;;;;;;;13.26;69.81;100540.97;5038074;28;19917;-82
2022/02/06 06:19:57;;;;;;;;;;;;;;;13.62;69.83;100519.72;5037841;28;19921;-82
2022/02/06 06:22:22;;;;;;;;;;;;;;;13.26;69.15;100504.78;5039091;28;20347;-82
2022/02/06 06:24:54;;;;;;;;;;;;;;;13.32;68.25;100509.81;5039156;28;19924;-82
2022/02/06 06:27:19;;;;;;;;;;;;;;;13.36;69.57;100510.50;5037664;28;19971;-82
2022/02/06 06:29:45;;;;;;;;;;;;;;;13.30;68.22;100501.78;5037956;28;19921;-82
2022/02/06 06:32:10;;;;;;;;;;;;;;;12.93;69.40;100462.50;5039242;28;20252;-82
2022/02/06 06:34:35;;;;;;;;;;;;;;;12.85;69.78;100476.59;5037463;28;19925;-83
2022/02/06 06:37:01;;;;;;;;;;;;;;;12.48;70.63;100473.44;5038901;28;19928;-82
2022/02/06 06:39:40;;;;;;;;;;;;;;;13.16;70.35;100465.59;5037736;28;19921;-83
2022/02/06 06:42:06;;;;;;;;;;;;;;;13.57;68.31;100462.94;5037622;28;19917;-83
2022/02/06 06:44:32;;;;;;;;;;;;;;;13.38;67.90;100463.25;5037525;28;20017;-83
2022/02/06 06:46:57;;;;;;;;;;;;;;;13.27;69.12;100466.66;5038911;28;19921;-83
2022/02/06 06:49:22;;;;;;;;;;;;;;;12.81;69.66;100455.16;5037384;28;19976;-82
2022/02/06 06:51:48;;;;;;;;;;;;;;;12.64;70.13;100467.09;5037146;28;19962;-83
2022/02/06 06:54:18;;;;;;;;;;;;;;;13.11;69.74;100445.03;5036839;28;19967;-83
2022/02/06 06:56:55;;;;;;;;;;;;;;;13.35;68.81;100438.16;5037418;28;19921;-83
2022/02/06 06:59:44;;;;;;;;;;;;;;;13.59;67.15;100443.81;5038428;28;19923;-84
2022/02/06 07:02:27;;;;;;;;;;;;;;;13.54;66.29;100446.84;5037160;28;19917;-83
2022/02/06 07:04:57;;;;;;;;;;;;;;;13.08;70.03;100423.50;5038379;28;19932;-82
2022/02/06 07:07:23;;;;;;;;;;;;;;;13.29;69.25;100432.09;5037919;28;20414;-83
2022/02/06 07:09:48;;;;;;;;;;;;;;;13.74;68.24;100403.81;5036466;28;19917;-83
2022/02/06 07:12:13;;;;;;;;;;;;;;;12.75;70.86;100399.41;5037894;28;19917;-82
2022/02/06 07:14:43;;;;;;;;;;;;;;;13.28;71.42;100410.47;5036600;28;19920;-83
2022/02/06 07:17:08;;;;;;;;;;;;;;;13.59;68.63;100397.59;5038122;28;20397;-82
2022/02/06 07:19:33;;;;;;;;;;;;;;;12.61;71.46;100385.88;5036941;28;20011;-83
2022/02/06 07:22:00;;;;;;;;;;;;;;;13.16;70.70;100397.69;5038170;28;19964;-83
2022/02/06 07:24:26;;;;;;;;;;;;;;;12.97;72.96;100393.47;5036997;28;20379;-82
2022/02/06 07:26:53;;;;;;;;;;;;;;;13.43;69.32;100378.72;5036555;28;20405;-83
2022/02/06 07:29:19;;;;;;;;;;;;;;;12.79;70.89;100383.78;5036434;28;19970;-83
2022/02/06 07:31:46;;;;;;;;;;;;;;;12.89;71.98;100377.69;5033563;28;20286;-83
2022/02/06 07:34:11;;;;;;;;;;;;;;;13.04;72.42;100374.94;5031729;28;19921;-83
2022/02/06 07:36:37;;;;;;;;;;;;;;;13.54;70.70;100356.25;5031690;28;19932;-83
2022/02/06 07:39:03;;;;;;;;;;;;;;;13.06;73.56;100357.56;5031846;28;20012;-83
2022/02/06 07:41:28;;;;;;;;;;;;;;;12.85;72.99;100359.84;5031890;28;20062;-83
2022/02/06 07:43:53;;;;;;;;;;;;;;;13.26;71.62;100344.50;5031552;28;20348;-84
2022/02/06 07:46:23;;;;;;;;;;;;;;;13.08;73.09;100338.47;5031501;28;19984;-83
2022/02/06 07:48:48;;;;;;;;;;;;;;;13.14;73.49;100323.59;5032852;28;19917;-83
2022/02/06 07:51:13;;;;;;;;;;;;;;;13.05;73.57;100298.78;5032521;28;20386;-83
2022/02/06 07:53:38;;;;;;;;;;;;;;;12.52;74.60;100317.63;5031465;28;19928;-83
2022/02/06 07:56:04;;;;;;;;;;;;;;;12.92;74.81;100309.63;5031547;28;19917;-82
2022/02/06 07:58:29;;;;;;;;;;;;;;;12.73;75.57;100295.50;5032500;28;19917;-84
2022/02/06 08:00:54;;;;;;;;;;;;;;;13.27;73.63;100276.50;5031359;28;19925;-83
2022/02/06 08:03:19;;;;;;;;;;;;;;;13.89;68.93;100290.41;5032452;28;20363;-83
2022/02/06 08:05:44;;;;;;;;;;;;;;;13.52;71.24;100271.25;5031207;28;19922;-84
2022/02/06 08:08:14;;;;;;;;;;;;;;;13.33;71.60;100252.59;5032262;28;19925;-83
2022/02/06 08:10:40;;;;;;;;;;;;;;;12.93;74.11;100259.75;5031911;28;20428;-83
2022/02/06 08:13:09;;;;;;;;;;;;;;;13.51;72.99;100245.91;5031200;28;20000;-84
2022/02/06 08:15:34;;;;;;;;;;;;;;;13.03;74.66;100254.59;5031187;28;19917;-83
2022/02/06 08:17:59;;;;;;;;;;;;;;;13.12;74.22;100234.09;5030950;28;19923;-82
2022/02/06 08:20:25;;;;;;;;;;;;;;;12.67;74.74;100212.63;5031184;28;19924;-83
2022/02/06 08:22:52;;;;;;;;;;;;;;;12.90;74.25;100218.38;5031108;28;19996;-83
2022/02/06 08:25:17;;;;;;;;;;;;;;;12.59;74.60;100224.00;5031122;28;19921;-83
2022/02/06 08:27:42;;;;;;;;;;;;;;;12.53;76.85;100215.38;5032275;28;19932;-83
2022/02/06 08:30:09;;;;;;;;;;;;;;;12.79;76.14;100210.06;5031510;28;19923;-82
2022/02/06 08:32:34;;;;;;;;;;;;;;;12.54;76.47;100188.16;5031050;28;19982;-84
2022/02/06 08:35:00;;;;;;;;;;;;;;;12.40;76.56;100194.50;5030844;28;20363;-83
2022/02/06 08:37:25;;;;;;;;;;;;;;;13.07;74.71;100184.63;5030976;28;19949;-83
2022/02/06 08:39:51;;;;;;;;;;;;;;;12.03;77.58;100169.78;5030983;28;19917;-83
2022/02/06 08:42:16;;;;;;;;;;;;;;;12.76;77.24;100156.88;5032742;28;19924;-83
2022/02/06 08:44:42;;;;;;;;;;;;;;;12.43;77.41;100160.88;5030469;28;19925;-84
2022/02/06 08:47:09;;;;;;;;;;;;;;;12.41;77.26;100128.44;5029184;28;20279;-82
2022/02/06 08:49:35;;;;;;;;;;;;;;;12.44;77.18;100140.03;5029031;28;19979;-84
2022/02/06 08:52:01;;;;;;;;;;;;;;;12.32;77.05;100131.75;5029050;28;20298;-83
2022/02/06 08:54:30;;;;;;;;;;;;;;;12.76;75.87;100137.88;5031943;28;19917;-83
2022/02/06 08:57:01;;;;;;;;;;;;;;;12.30;83.38;100127.41;5030764;28;20000;-83
2022/02/06 08:59:26;;;;;;;;;;;;;;;12.61;77.00;100118.06;5030967;28;20006;-82
2022/02/06 09:01:52;;;;;;;;;;;;;;;12.32;78.41;100101.94;5032019;28;19988;-83
2022/02/06 09:04:17;;;;;;;;;;;;;;;12.61;77.60;100099.09;5030962;28;19925;-83
2022/02/06 09:06:43;;;;;;;;;;;;;;;12.68;77.40;100073.28;5030735;28;19921;-83
2022/02/06 09:09:09;;;;;;;;;;;;;;;12.45;77.52;100087.53;5032250;28;20367;-83
2022/02/06 09:11:34;;;;;;;;;;;;;;;12.63;77.00;100080.84;5030435;28;19917;-83
2022/02/06 09:14:00;;;;;;;;;;;;;;;13.29;75.00;100059.94;5030726;28;19963;-81
2022/02/06 09:16:26;;;;;;;;;;;;;;;13.18;75.00;100057.13;5031917;28;19944;-81
2022/02/06 09:18:52;;;;;;;;;;;;;;;13.77;73.97;100058.38;5030597;28;19924;-82
2022/02/06 09:21:20;;;;;;;;;;;;;;;13.12;74.92;100055.72;5032292;28;19920;-83
2022/02/06 09:23:46;;;;;;;;;;;;;;;12.34;77.70;100037.59;5034253;28;19967;-82
2022/02/06 09:26:11;;;;;;;;;;;;;;;12.47;77.08;100031.31;5035454;28;19921;-84
2022/02/06 09:28:36;;;;;;;;;;;;;;;12.85;76.69;100036.81;5035555;28;20259;-82
2022/02/06 09:31:01;;;;;;;;;;;;;;;13.04;74.99;100038.22;5035535;28;20406;-82
2022/02/06 09:35:52;;;;;;;;;;;;;;;12.86;76.05;100024.09;5035478;28;19921;-80
2022/02/06 09:38:17;;;;;;;;;;;;;;;13.39;74.67;100032.13;5035036;28;20011;-82
2022/02/06 09:40:44;;;;;;;;;;;;;;;12.34;77.15;100010.47;5034037;28;19917;-82
2022/02/06 09:43:09;;;;;;;;;;;;;;;13.18;74.69;100015.50;5033532;28;19917;-82
2022/02/06 09:45:38;;;;;;;;;;;;;;;12.29;79.11;99996.34;5033729;28;20047;-81
2022/02/06 09:48:03;;;;;;;;;;;;;;;12.49;77.39;99991.41;5033769;28;20334;-82
2022/02/06 09:50:29;;;;;;;;;;;;;;;12.32;78.60;99957.28;5033427;28;19917;-81
2022/02/06 09:52:55;;;;;;;;;;;;;;;12.79;77.29;99973.91;5033774;28;19917;-81
2022/02/06 09:55:22;;;;;;;;;;;;;;;12.72;78.13;99977.06;5033609;28;19948;-82
2022/02/06 10:00:42;;;;;;;;;;;;;;;12.13;79.84;99963.13;5018712;28;20015;-82
2022/02/06 10:03:10;;;;;;;;;;;;;;;13.04;76.31;99941.31;5033542;28;20020;-81
2022/02/06 10:05:37;;;;;;;;;;;;;;;13.25;76.26;99946.19;5033399;28;19921;-82
2022/02/06 10:08:11;;;;;;;;;;;;;;;13.04;76.39;99929.59;5033243;28;19925;-82
2022/02/06 10:10:40;;;;;;;;;;;;;;;13.76;74.71;99927.00;5033243;28;19917;-82
2022/02/06 10:13:05;;;;;;;;;;;;;;;13.23;76.09;99940.84;5033299;28;20005;-83
2022/02/06 10:15:32;;;;;;;;;;;;;;;13.88;74.08;99927.94;5033398;28;19956;-82
2022/02/06 10:17:57;;;;;;;;;;;;;;;13.56;74.96;99933.94;5033219;28;19921;-83
2022/02/06 10:20:32;;;;;;;;;;;;;;;14.11;73.35;99915.28;5034876;28;19971;-84
2022/02/06 10:23:01;;;;;;;;;;;;;;;13.61;73.39;99918.16;5033138;28;19917;-84
2022/02/06 10:25:27;;;;;;;;;;;;;;;14.47;72.69;99897.06;5034686;28;19917;-83
2022/02/06 10:28:02;;;;;;;;;;;;;;;13.02;76.76;99908.00;5033465;28;19913;-83
2022/02/06 10:30:39;;;;;;;;;;;;;;;13.37;76.24;99861.09;5033180;28;19921;-84
2022/02/06 10:33:23;;;;;;;;;;;;;;;14.92;71.88;99860.84;5032124;28;19917;-84
2022/02/06 10:35:49;;;;;;;;;;;;;;;14.13;72.90;99866.19;5032959;28;19928;-84
2022/02/06 10:38:20;;;;;;;;;;;;;;;13.35;73.83;99860.34;5032791;28;19917;-83
2022/02/06 10:41:00;;;;;;;;;;;;;;;13.98;73.84;99884.59;5034128;28;19960;-82
2022/02/06 10:43:26;;;;;;;;;;;;;;;14.20;73.10;99891.06;5033281;28;20402;-85
2022/02/06 10:46:03;;;;;;;;;;;;;;;14.51;72.28;99871.34;5033467;28;19917;-85
2022/02/06 10:48:29;;;;;;;;;;;;;;;14.29;71.55;99883.03;5034318;28;19971;-83
2022/02/06 10:50:54;;;;;;;;;;;;;;;14.25;71.53;99897.00;5033214;28;19999;-83
2022/02/06 10:53:20;;;;;;;;;;;;;;;13.25;76.48;99929.88;5033111;28;19917;-85
2022/02/06 10:55:53;;;;;;;;;;;;;;;13.25;74.45;99929.88;5034088;28;20300;-85
2022/02/06 10:58:18;;;;;;;;;;;;;;;12.12;73.47;99983.94;5033562;28;19921;-88
2022/02/06 11:00:43;;;;;;;;;;;;;;;11.96;72.46;99984.13;5033270;28;19917;-83
2022/02/06 11:03:26;;;;;;;;;;;;;;;12.05;71.34;100001.59;5033565;28;19921;-84
2022/02/06 11:05:55;;;;;;;;;;;;;;;12.00;71.66;100007.34;5040671;28;19925;-85
2022/02/06 11:08:29;;;;;;;;;;;;;;;11.89;71.69;100012.56;5042165;28;19928;-86
2022/02/06 11:10:58;;;;;;;;;;;;;;;11.42;72.66;100030.09;5042440;28;20025;-85
2022/02/06 11:13:24;;;;;;;;;;;;;;;11.85;71.65;100051.66;5037582;28;19923;-83
2022/02/06 11:15:50;;;;;;;;;;;;;;;11.91;71.65;100037.72;5042327;28;19921;-83
2022/02/06 11:18:18;;;;;;;;;;;;;;;12.03;71.40;100044.19;5039469;28;20007;-82
2022/02/06 11:20:57;;;;;;;;;;;;;;;11.98;71.94;100047.22;5034679;28;19917;-82
2022/02/06 11:23:42;;;;;;;;;;;;;;;11.63;72.55;100038.69;5034079;28;19928;-82
2022/02/06 11:26:08;;;;;;;;;;;;;;;11.91;71.69;100045.84;5033209;28;19921;-82
2022/02/06 11:28:33;;;;;;;;;;;;;;;11.89;71.70;100054.06;5038247;28;19921;-83
2022/02/06 11:30:59;;;;;;;;;;;;;;;11.39;72.51;100069.06;5038222;28;19939;-81
2022/02/06 11:33:26;;;;;;;;;;;;;;;11.68;72.74;100075.34;5040623;28;20298;-81
2022/02/06 11:35:58;;;;;;;;;;;;;;;11.73;71.78;100085.00;5037755;28;20011;-82
2022/02/06 11:44:25;;;;;;;;;;;;;;;11.99;70.64;100086.06;5040433;28;19999;-82
2022/02/06 11:47:01;;;;;;;;;;;;;;;12.65;70.25;99988.47;5040477;28;19917;-84
2022/02/06 11:49:26;;;;;;;;;;;;;;;12.30;69.07;99997.22;5038552;28;20625;-82
2022/02/06 11:51:53;;;;;;;;;;;;;;;12.61;69.01;99997.81;5038238;28;20387;-83
2022/02/06 11:54:52;;;;;;;;;;;;;;;12.91;67.44;100019.22;5041235;28;19916;-84
2022/02/06 11:57:26;;;;;;;;;;;;;;;12.14;68.46;100035.34;5030549;28;19933;-84
2022/02/06 12:00:06;;;;;;;;;;;;;;;12.49;68.47;100045.66;5039691;28;19921;-82
2022/02/06 12:02:32;;;;;;;;;;;;;;;13.01;67.57;100027.56;5039407;28;19925;-83
2022/02/06 12:05:16;;;;;;;;;;;;;;;13.08;67.26;100040.59;5038457;28;20412;-83
2022/02/06 12:07:56;;;;;;;;;;;;;;;12.82;66.67;100042.44;5038058;28;19999;-83
2022/02/06 12:10:34;;;;;;;;;;;;;;;12.26;68.33;100045.38;5041793;28;19917;-85
2022/02/06 12:13:18;;;;;;;;;;;;;;;12.56;67.71;100063.22;5040061;28;19924;-86
2022/02/06 12:15:47;;;;;;;;;;;;;;;12.76;66.77;100064.59;5040011;28;19935;-85
2022/02/06 12:18:13;;;;;;;;;;;;;;;13.08;66.30;100065.03;5048784;28;19916;-85
2022/02/06 12:20:46;;;;;;;;;;;;;;;12.52;66.85;100068.00;5043173;28;19928;-85
2022/02/06 12:23:30;;;;;;;;;;;;;;;12.67;67.59;100059.81;5015735;28;19924;-86
2022/02/06 12:25:59;;;;;;;;;;;;;;;12.70;67.34;100073.16;5037265;28;19917;-87
2022/02/06 12:28:28;;;;;;;;;;;;;;;13.15;66.46;100067.31;5040446;28;19917;-87
2022/02/06 12:31:18;;;;;;;;;;;;;;;13.03;67.53;100058.19;5038028;28;19917;-85
2022/02/06 12:39:26;;;;;;;;;;;;;;;12.17;69.95;100056.84;5042736;28;19940;-84
2022/02/06 12:41:52;;;;;;;;;;;;;;;13.26;68.28;100057.44;5042845;28;19929;-86
2022/02/06 12:44:18;;;;;;;;;;;;;;;13.05;67.00;100054.41;5031974;28;19922;-86
2022/02/06 12:46:47;;;;;;;;;;;;;;;13.97;65.34;100056.88;5032707;28;20379;-87
2022/02/06 12:49:15;;;;;;;;;;;;;;;13.01;67.42;100068.31;5031583;28;19959;-85
2022/02/06 12:51:40;;;;;;;;;;;;;;;13.01;67.85;100071.00;5032386;28;19917;-84
2022/02/06 12:54:08;;;;;;;;;;;;;;;13.13;67.45;100075.56;5031541;28;19940;-86
2022/02/06 12:56:34;;;;;;;;;;;;;;;13.38;66.80;100082.88;5033887;28;19924;-85
2022/02/06 12:59:00;;;;;;;;;;;;;;;12.80;68.15;100087.81;5036280;28;20013;-85
2022/02/06 13:01:39;;;;;;;;;;;;;;;12.28;68.81;100075.97;5035035;28;19993;-85
2022/02/06 13:04:05;;;;;;;;;;;;;;;12.71;68.24;100073.06;5034668;28;19949;-87
2022/02/06 13:06:36;;;;;;;;;;;;;;;12.41;68.91;100063.31;5026816;28;19925;-87
2022/02/06 13:09:04;;;;;;;;;;;;;;;12.97;68.58;100061.34;5031172;28;19917;-83
2022/02/06 13:11:40;;;;;;;;;;;;;;;12.98;68.37;100073.94;5031450;28;19924;-83
2022/02/06 13:14:32;;;;;;;;;;;;;;;12.29;69.37;100080.44;5031282;28;19918;-83
2022/02/06 13:17:11;;;;;;;;;;;;;;;12.54;68.70;100087.75;5030448;28;19922;-84
2022/02/06 13:20:04;;;;;;;;;;;;;;;12.59;67.74;100082.00;5030315;28;19953;-83
2022/02/06 13:22:48;;;;;;;;;;;;;;;12.12;69.39;100091.53;5030452;28;19967;-82
2022/02/06 13:28:11;;;;;;;;;;;;;;;12.51;68.17;100068.97;5014668;28;20594;-83
2022/02/06 13:33:40;;;;;;;;;;;;;;;12.68;67.70;100078.69;5034548;28;19924;-82
2022/02/06 13:38:38;;;;;;;;;;;;;;;12.56;67.54;100085.84;5014928;28;19924;-82
2022/02/06 13:41:10;;;;;;;;;;;;;;;12.39;67.84;100088.81;5013470;28;19945;-83
2022/02/06 13:43:40;;;;;;;;;;;;;;;12.80;66.89;100095.09;5013667;28;19923;-87
2022/02/06 13:46:15;;;;;;;;;;;;;;;12.96;66.07;100098.50;5013817;28;19922;-83
2022/02/06 13:48:41;;;;;;;;;;;;;;;12.65;66.86;100111.47;5013456;28;20004;-83
2022/02/06 13:51:08;;;;;;;;;;;;;;;12.53;67.15;100096.00;5031887;28;20013;-81
2022/02/06 13:53:35;;;;;;;;;;;;;;;12.54;66.66;100093.19;5043611;28;20447;-82
2022/02/06 13:56:03;;;;;;;;;;;;;;;12.40;67.11;100087.84;5042243;28;19971;-83
2022/02/06 13:58:29;;;;;;;;;;;;;;;12.24;66.77;100106.97;5041386;28;19928;-84
2022/02/06 14:01:04;;;;;;;;;;;;;;;12.33;66.28;100110.91;5040817;28;19921;-83
2022/02/06 14:03:45;;;;;;;;;;;;;;;12.14;67.59;100116.69;5042337;28;19920;-81
2022/02/06 14:06:11;;;;;;;;;;;;;;;12.27;66.60;100114.91;5042478;28;19932;-83
2022/02/06 14:08:39;;;;;;;;;;;;;;;12.00;66.72;100104.03;5040030;28;19920;-82
2022/02/06 14:11:18;;;;;;;;;;;;;;;12.44;65.73;100124.66;5040209;28;19921;-84
2022/02/06 14:13:43;;;;;;;;;;;;;;;12.03;66.54;100117.38;5039970;28;20268;-84
2022/02/06 14:16:11;;;;;;;;;;;;;;;12.33;65.48;100130.75;5043385;28;20327;-83
2022/02/06 14:18:47;;;;;;;;;;;;;;;12.55;64.45;100104.94;5040859;28;19950;-81
2022/02/06 14:21:13;;;;;;;;;;;;;;;13.26;63.24;100103.59;5038731;28;20019;-82
2022/02/06 14:23:38;;;;;;;;;;;;;;;13.37;63.24;100113.75;5040087;28;20423;-87
2022/02/06 14:26:11;;;;;;;;;;;;;;;12.88;63.88;100118.03;5042378;28;19929;-80
2022/02/06 14:28:45;;;;;;;;;;;;;;;13.04;63.31;100120.53;5039757;28;19917;-82
2022/02/06 14:31:24;;;;;;;;;;;;;;;12.86;63.52;100106.41;5037626;28;20295;-83
2022/02/06 14:33:49;;;;;;;;;;;;;;;13.12;62.48;100125.47;5039912;28;19921;-82
2022/02/06 14:36:21;;;;;;;;;;;;;;;13.43;62.43;100117.88;5042302;28;19921;-83
2022/02/06 14:38:50;;;;;;;;;;;;;;;12.77;63.23;100116.06;5044615;28;19916;-83
2022/02/06 14:44:08;;;;;;;;;;;;;;;13.04;62.84;100114.25;5036367;28;20039;-81
2022/02/06 14:46:35;;;;;;;;;;;;;;;12.95;63.24;100126.59;5029819;28;19924;-82
2022/02/06 14:49:06;;;;;;;;;;;;;;;13.42;61.91;100122.44;5030932;28;19913;-83
2022/02/06 14:51:32;;;;;;;;;;;;;;;13.35;62.13;100118.44;5032189;28;19917;-87
2022/02/06 14:54:00;;;;;;;;;;;;;;;12.73;63.01;100119.94;5032342;28;19921;-84
2022/02/06 14:56:26;;;;;;;;;;;;;;;13.78;61.19;100114.47;5031638;28;19924;-84
2022/02/06 14:58:51;;;;;;;;;;;;;;;14.00;61.42;100119.22;5031676;28;19924;-84
2022/02/06 15:01:18;;;;;;;;;;;;;;;13.22;62.57;100120.25;5032314;28;19925;-84
2022/02/06 15:03:43;;;;;;;;;;;;;;;13.23;62.72;100128.28;5032938;28;19944;-84
2022/02/06 15:06:08;;;;;;;;;;;;;;;13.17;62.58;100111.56;5031291;28;20359;-87
2022/02/06 15:08:34;;;;;;;;;;;;;;;13.76;61.09;100105.56;5032642;28;19917;-86